Time;durP1;ratioP1;P1;durP2;ratioP2;P2;SDS_P1;SDS_P2;PMS_P1;PMS_P2;Temp;Humidity;BMP_temperature;BMP_pressure;BME280_temperature;BME280_humidity;BME280_pressure;Samples;Min_cycle;Max_cycle;Signal;HPM_P1;HPM_P2
2022/07/20 00:02:21;;;;;;;7.72;4.18;;;27.20;62.60;;;;;;5092452;28;20024;-73
2022/07/20 00:04:50;;;;;;;5.40;3.35;;;27.10;62.60;;;;;;5092407;28;20103;-73
2022/07/20 00:07:16;;;;;;;5.30;3.42;;;27.10;62.70;;;;;;5091984;28;20024;-73
2022/07/20 00:12:26;;;;;;;4.90;3.25;;;27.00;62.80;;;;;;5092942;28;20024;-73
2022/07/20 00:14:52;;;;;;;3.85;3.55;;;27.00;63.00;;;;;;5091886;28;20027;-74
2022/07/20 00:17:18;;;;;;;4.47;3.65;;;26.90;63.20;;;;;;5096582;28;20030;-73
2022/07/20 00:19:43;;;;;;;5.20;3.80;;;26.90;63.50;;;;;;5099531;28;20028;-75
2022/07/20 00:22:09;;;;;;;5.75;3.90;;;26.90;63.80;;;;;;5092160;28;20019;-74
2022/07/20 00:24:35;;;;;;;7.32;3.85;;;27.10;63.60;;;;;;5092382;28;20112;-73
2022/07/20 00:27:01;;;;;;;9.15;4.05;;;27.00;62.30;;;;;;5077677;28;20392;-75
2022/07/20 00:29:26;;;;;;;11.95;4.85;;;26.90;62.60;;;;;;5091272;28;20039;-74
2022/07/20 00:31:52;;;;;;;8.50;3.80;;;26.90;62.40;;;;;;5093158;28;20575;-74
2022/07/20 00:34:18;;;;;;;6.78;4.20;;;26.80;62.30;;;;;;5094028;28;20028;-74
2022/07/20 00:36:43;;;;;;;8.85;4.22;;;26.90;62.70;;;;;;5095691;28;20020;-75
2022/07/20 00:39:09;;;;;;;5.63;3.42;;;26.70;63.10;;;;;;5093206;28;20073;-74
2022/07/20 00:41:35;;;;;;;5.32;3.85;;;26.70;63.70;;;;;;5092467;28;20391;-74
2022/07/20 00:44:06;;;;;;;10.35;3.90;;;26.60;63.70;;;;;;5091278;28;20047;-75
2022/07/20 00:46:35;;;;;;;3.80;3.40;;;26.50;64.00;;;;;;5092684;28;20059;-73
2022/07/20 00:49:01;;;;;;;4.20;3.70;;;26.50;64.20;;;;;;5091870;28;20350;-75
2022/07/20 00:51:27;;;;;;;7.32;3.72;;;26.40;64.40;;;;;;5092214;28;20463;-74
2022/07/20 00:53:53;;;;;;;7.18;3.85;;;26.40;64.60;;;;;;5091464;28;20032;-73
2022/07/20 00:56:19;;;;;;;5.65;3.63;;;26.40;64.80;;;;;;5090955;28;20020;-74
2022/07/20 00:58:45;;;;;;;8.18;3.30;;;26.30;64.60;;;;;;5091595;28;20024;-74
2022/07/20 01:01:12;;;;;;;5.68;3.70;;;26.30;65.10;;;;;;5091920;28;20380;-74
2022/07/20 01:03:38;;;;;;;4.53;3.75;;;26.20;65.20;;;;;;5091622;28;20037;-73
2022/07/20 01:06:05;;;;;;;5.82;3.75;;;26.20;65.90;;;;;;5091731;28;20047;-74
2022/07/20 01:08:32;;;;;;;4.80;3.97;;;26.20;65.60;;;;;;5091771;28;20399;-74
2022/07/20 01:10:58;;;;;;;5.03;3.50;;;26.10;65.70;;;;;;5090718;28;20434;-75
2022/07/20 01:13:24;;;;;;;6.10;4.13;;;26.00;65.60;;;;;;5091220;28;20012;-74
2022/07/20 01:15:49;;;;;;;5.45;4.28;;;26.00;65.80;;;;;;5091563;28;20024;-74
2022/07/20 01:18:15;;;;;;;5.85;3.53;;;25.90;65.80;;;;;;5090891;28;20380;-73
2022/07/20 01:20:47;;;;;;;4.38;3.97;;;25.90;65.70;;;;;;5092108;28;20383;-74
2022/07/20 01:23:13;;;;;;;5.95;4.72;;;25.90;65.80;;;;;;5091467;28;20027;-74
2022/07/20 01:25:40;;;;;;;9.18;4.35;;;25.80;65.70;;;;;;5087568;28;20028;-74
2022/07/20 01:28:07;;;;;;;8.65;4.25;;;25.70;65.90;;;;;;5080943;28;20042;-73
2022/07/20 01:30:33;;;;;;;10.95;4.72;;;25.70;66.00;;;;;;5091714;28;20047;-74
2022/07/20 01:32:58;;;;;;;7.22;4.15;;;25.70;66.20;;;;;;5090984;28;20016;-74
2022/07/20 01:35:24;;;;;;;4.45;3.90;;;25.60;66.30;;;;;;5091449;28;20491;-73
2022/07/20 01:37:49;;;;;;;9.68;4.10;;;25.60;66.50;;;;;;5091309;28;20166;-74
2022/07/20 01:40:15;;;;;;;5.45;3.80;;;25.50;67.00;;;;;;5090894;28;20474;-74
2022/07/20 01:42:40;;;;;;;4.28;3.80;;;25.50;66.90;;;;;;5094697;28;20027;-73
2022/07/20 01:45:07;;;;;;;5.03;4.28;;;25.50;66.90;;;;;;5094229;28;20024;-73
2022/07/20 01:47:32;;;;;;;6.22;4.10;;;25.50;67.10;;;;;;5095181;28;20036;-74
2022/07/20 01:49:58;;;;;;;8.20;3.72;;;25.40;66.90;;;;;;5094686;28;20507;-74
2022/07/20 01:52:24;;;;;;;8.50;3.67;;;25.40;67.10;;;;;;5094705;28;20028;-73
2022/07/20 01:54:49;;;;;;;5.00;3.92;;;25.40;67.40;;;;;;5094655;28;20022;-73
2022/07/20 01:57:15;;;;;;;5.03;4.25;;;25.40;68.20;;;;;;5094973;28;20464;-73
2022/07/20 01:59:40;;;;;;;8.27;5.32;;;25.50;69.20;;;;;;5093942;28;20099;-73
2022/07/20 02:02:06;;;;;;;9.10;6.03;;;25.60;71.30;;;;;;5093821;28;20395;-74
2022/07/20 02:04:31;;;;;;;15.30;8.45;;;25.50;72.70;;;;;;5094778;28;20496;-74
2022/07/20 02:06:57;;;;;;;18.88;10.82;;;25.50;74.80;;;;;;5094253;28;20118;-75
2022/07/20 02:09:23;;;;;;;22.77;11.82;;;25.40;76.50;;;;;;5094561;28;20098;-73
2022/07/20 02:11:49;;;;;;;23.38;13.48;;;25.40;78.60;;;;;;5094498;28;20048;-74
2022/07/20 02:14:14;;;;;;;24.40;14.07;;;25.30;80.60;;;;;;5093868;28;20067;-75
2022/07/20 02:16:40;;;;;;;24.38;15.85;;;25.30;82.50;;;;;;5094573;28;20016;-74
2022/07/20 02:19:05;;;;;;;25.65;16.75;;;25.10;84.60;;;;;;5094418;28;20032;-75
2022/07/20 02:21:31;;;;;;;31.58;17.23;;;25.10;85.20;;;;;;5091399;28;20534;-74
2022/07/20 02:23:57;;;;;;;24.85;16.10;;;25.00;87.10;;;;;;5090331;28;20158;-73
2022/07/20 02:26:23;;;;;;;26.80;17.70;;;24.90;87.50;;;;;;5085907;28;20020;-74
2022/07/20 02:28:49;;;;;;;38.25;19.33;;;24.80;88.40;;;;;;5085681;28;20044;-74
2022/07/20 02:31:15;;;;;;;32.97;18.92;;;24.70;89.40;;;;;;5081497;28;20043;-74
2022/07/20 02:33:41;;;;;;;41.63;21.02;;;24.60;90.10;;;;;;5087887;28;20024;-74
2022/07/20 02:36:07;;;;;;;25.67;18.77;;;24.40;90.50;;;;;;5093095;28;20077;-74
2022/07/20 02:38:32;;;;;;;30.05;20.92;;;24.30;90.90;;;;;;5082338;28;20107;-74
2022/07/20 02:40:58;;;;;;;31.23;20.40;;;24.30;91.40;;;;;;5077343;28;20530;-73
2022/07/20 02:43:23;;;;;;;31.35;21.38;;;24.30;91.80;;;;;;5093263;28;20036;-73
2022/07/20 02:45:49;;;;;;;32.67;21.30;;;24.20;92.40;;;;;;5093670;28;20054;-73
2022/07/20 02:48:15;;;;;;;39.45;22.08;;;24.10;92.60;;;;;;5094118;28;20028;-74
2022/07/20 02:50:41;;;;;;;36.78;22.20;;;24.10;93.10;;;;;;5094086;28;20054;-75
2022/07/20 02:53:09;;;;;;;35.42;23.65;;;24.00;93.50;;;;;;5092905;28;20020;-74
2022/07/20 02:55:35;;;;;;;42.15;24.42;;;24.00;93.80;;;;;;5094102;28;20054;-73
2022/07/20 02:58:00;;;;;;;32.88;24.60;;;24.00;94.30;;;;;;5079514;28;20476;-73
2022/07/20 03:00:26;;;;;;;42.60;25.10;;;24.00;94.60;;;;;;5093773;28;20028;-73
2022/07/20 03:02:52;;;;;;;35.03;24.92;;;23.90;95.10;;;;;;5092694;28;20020;-74
2022/07/20 03:05:18;;;;;;;38.53;24.85;;;23.90;95.70;;;;;;5093853;28;20028;-73
2022/07/20 03:07:44;;;;;;;37.28;24.42;;;23.80;96.30;;;;;;5093824;28;20479;-74
2022/07/20 03:10:10;;;;;;;41.17;27.13;;;23.70;96.70;;;;;;5092401;28;20056;-74
2022/07/20 03:12:36;;;;;;;42.35;25.15;;;23.70;97.10;;;;;;5093547;28;20361;-74
2022/07/20 03:15:03;;;;;;;50.88;26.80;;;23.70;97.50;;;;;;5093517;28;20027;-73
2022/07/20 03:17:29;;;;;;;43.65;27.90;;;23.70;98.00;;;;;;5093106;28;20020;-74
2022/07/20 03:19:54;;;;;;;47.17;30.27;;;23.60;98.40;;;;;;5092917;28;20486;-75
2022/07/20 03:22:20;;;;;;;41.30;27.77;;;23.60;98.50;;;;;;5093342;28;20116;-75
2022/07/20 03:24:45;;;;;;;42.10;27.55;;;23.60;99.00;;;;;;5092964;28;20024;-74
2022/07/20 03:27:11;;;;;;;40.22;27.23;;;23.60;99.50;;;;;;5092899;28;20035;-74
2022/07/20 03:29:37;;;;;;;46.55;29.08;;;23.50;99.90;;;;;;5093076;28;20114;-74
2022/07/20 03:32:03;;;;;;;41.70;28.55;;;23.60;99.80;;;;;;5077626;28;20021;-74
2022/07/20 03:34:29;;;;;;;45.78;30.00;;;23.50;99.90;;;;;;5093221;28;20028;-74
2022/07/20 03:36:54;;;;;;;42.20;29.92;;;23.60;99.90;;;;;;5092540;28;20031;-74
2022/07/20 03:39:20;;;;;;;47.58;29.67;;;23.60;99.90;;;;;;5092323;28;20028;-73
2022/07/20 03:41:45;;;;;;;44.13;29.88;;;23.60;99.90;;;;;;5093187;28;20085;-74
2022/07/20 03:44:11;;;;;;;46.72;30.80;;;23.60;99.90;;;;;;5092120;28;20031;-74
2022/07/20 03:46:37;;;;;;;50.95;29.00;;;23.60;99.90;;;;;;5092176;28;20020;-74
2022/07/20 03:49:02;;;;;;;41.88;28.88;;;23.50;99.90;;;;;;5092385;28;20043;-74
2022/07/20 03:51:28;;;;;;;52.47;31.45;;;23.50;99.90;;;;;;5093867;28;20527;-74
2022/07/20 03:53:54;;;;;;;51.25;32.10;;;23.50;99.90;;;;;;5091839;28;20086;-74
2022/07/20 03:56:19;;;;;;;52.17;31.17;;;23.60;99.90;;;;;;5092370;28;20376;-73
2022/07/20 03:58:45;;;;;;;53.35;31.85;;;23.50;99.90;;;;;;5091972;28;20059;-74
2022/07/20 04:01:10;;;;;;;44.35;31.48;;;23.60;99.90;;;;;;5092434;28;20479;-73
2022/07/20 04:03:36;;;;;;;47.45;30.05;;;23.60;99.90;;;;;;5092433;28;20024;-74
2022/07/20 04:06:03;;;;;;;46.25;30.30;;;23.60;99.90;;;;;;5090348;28;20020;-74
2022/07/20 04:08:28;;;;;;;56.08;31.17;;;23.60;99.90;;;;;;5092538;28;20139;-75
2022/07/20 04:10:54;;;;;;;47.22;31.52;;;23.60;99.90;;;;;;5091807;28;20166;-75
2022/07/20 04:13:20;;;;;;;44.38;31.55;;;23.60;99.90;;;;;;5091794;28;20024;-74
2022/07/20 04:15:45;;;;;;;51.35;32.15;;;23.60;99.90;;;;;;5095027;28;20028;-74
2022/07/20 04:18:11;;;;;;;46.65;30.83;;;23.60;99.90;;;;;;5092576;28;20024;-73
2022/07/20 04:20:37;;;;;;;50.00;32.25;;;23.50;99.90;;;;;;5091209;28;20067;-73
2022/07/20 04:23:02;;;;;;;51.70;33.03;;;23.60;99.90;;;;;;5091905;28;20055;-74
2022/07/20 04:25:28;;;;;;;52.50;31.65;;;23.60;99.90;;;;;;5092357;28;20043;-73
2022/07/20 04:27:53;;;;;;;48.38;32.05;;;23.60;99.90;;;;;;5090529;28;20336;-74
2022/07/20 04:30:19;;;;;;;59.03;32.40;;;23.60;99.90;;;;;;5088512;28;20056;-74
2022/07/20 04:32:45;;;;;;;45.92;31.08;;;23.60;99.90;;;;;;5078719;28;20016;-75
2022/07/20 04:35:11;;;;;;;49.97;31.83;;;23.70;99.90;;;;;;5089533;28;20077;-75
2022/07/20 04:37:37;;;;;;;51.78;31.55;;;23.70;99.90;;;;;;5076440;28;20038;-74
2022/07/20 04:40:04;;;;;;;44.17;30.20;;;23.70;99.90;;;;;;5090834;28;20052;-74
2022/07/20 04:42:30;;;;;;;48.25;29.70;;;23.70;99.90;;;;;;5090173;28;20047;-73
2022/07/20 04:44:56;;;;;;;43.80;30.60;;;23.80;99.90;;;;;;5091834;28;20098;-73
2022/07/20 04:47:22;;;;;;;49.55;29.77;;;23.80;99.90;;;;;;5088335;28;20020;-72
2022/07/20 04:49:48;;;;;;;45.72;28.90;;;23.90;99.90;;;;;;5075750;28;20024;-74
2022/07/20 04:52:13;;;;;;;41.47;29.48;;;24.00;99.90;;;;;;5076667;28;20108;-74
2022/07/20 04:54:39;;;;;;;41.35;27.38;;;24.00;99.90;;;;;;5071852;28;20483;-75
2022/07/20 04:57:05;;;;;;;37.67;27.60;;;24.10;99.90;;;;;;5070985;28;20036;-74
2022/07/20 04:59:31;;;;;;;43.15;26.92;;;24.10;99.90;;;;;;5071684;28;20028;-75
2022/07/20 05:01:56;;;;;;;44.70;29.52;;;24.10;99.90;;;;;;5078492;28;20021;-75
2022/07/20 05:04:22;;;;;;;40.58;26.67;;;24.20;99.90;;;;;;5080701;28;20020;-75
2022/07/20 05:06:48;;;;;;;38.30;27.17;;;24.30;99.90;;;;;;5076122;28;20013;-75
2022/07/20 05:09:13;;;;;;;42.03;26.58;;;24.30;99.90;;;;;;5076958;28;20052;-74
2022/07/20 05:11:39;;;;;;;44.78;26.88;;;24.40;99.90;;;;;;5078389;28;20027;-74
2022/07/20 05:14:05;;;;;;;39.63;25.30;;;24.50;99.90;;;;;;5077272;28;20024;-75
2022/07/20 05:16:30;;;;;;;42.83;28.60;;;24.50;99.90;;;;;;5077276;28;20012;-75
2022/07/20 05:18:56;;;;;;;43.88;27.67;;;24.50;99.90;;;;;;5080809;28;20026;-75
2022/07/20 05:21:22;;;;;;;41.47;24.88;;;24.50;99.90;;;;;;5077501;28;20048;-74
2022/07/20 05:23:47;;;;;;;38.83;24.65;;;24.50;99.90;;;;;;5075183;28;20079;-75
2022/07/20 05:26:13;;;;;;;36.03;24.20;;;24.50;99.90;;;;;;5080943;28;20108;-75
2022/07/20 05:28:43;;;;;;;32.65;24.17;;;24.50;99.90;;;;;;5081481;28;20016;-75
2022/07/20 05:31:09;;;;;;;33.20;22.42;;;24.50;99.90;;;;;;5075867;28;20070;-76
2022/07/20 05:33:36;;;;;;;41.67;22.80;;;24.50;99.90;;;;;;5076617;28;20100;-75
2022/07/20 05:36:02;;;;;;;29.35;22.13;;;24.60;99.90;;;;;;5079965;28;20020;-75
2022/07/20 05:38:29;;;;;;;27.52;20.75;;;24.60;99.90;;;;;;5076322;28;20028;-76
2022/07/20 05:40:55;;;;;;;32.55;20.45;;;24.60;99.90;;;;;;5080501;28;20059;-75
2022/07/20 05:43:21;;;;;;;29.13;19.35;;;24.50;99.90;;;;;;5077652;28;20052;-74
2022/07/20 05:45:46;;;;;;;23.98;17.90;;;24.60;99.90;;;;;;5076906;28;20078;-75
2022/07/20 05:48:12;;;;;;;27.48;17.40;;;24.70;99.80;;;;;;5061202;28;20055;-74
2022/07/20 05:50:39;;;;;;;30.08;17.45;;;24.70;99.90;;;;;;5075663;28;20028;-74
2022/07/20 05:53:05;;;;;;;24.55;15.63;;;24.70;99.90;;;;;;5074745;28;20500;-75
2022/07/20 05:55:32;;;;;;;25.27;15.25;;;24.70;99.90;;;;;;5076715;28;20021;-75
2022/07/20 05:57:58;;;;;;;23.17;15.32;;;24.80;99.60;;;;;;5079560;28;20024;-77
2022/07/20 06:00:24;;;;;;;26.60;14.63;;;24.90;99.10;;;;;;5077297;28;20148;-74
2022/07/20 06:02:49;;;;;;;30.13;16.00;;;25.00;98.90;;;;;;5076185;28;20065;-74
2022/07/20 06:05:15;;;;;;;27.20;15.23;;;25.10;98.70;;;;;;5076475;28;20028;-74
2022/07/20 06:07:41;;;;;;;26.55;14.77;;;25.00;98.90;;;;;;5079591;28;20146;-73
2022/07/20 06:10:07;;;;;;;17.38;13.65;;;25.00;99.00;;;;;;5078453;28;20517;-73
2022/07/20 06:12:33;;;;;;;17.95;12.93;;;25.00;98.70;;;;;;5076673;28;20028;-73
2022/07/20 06:14:58;;;;;;;27.38;13.63;;;25.10;98.50;;;;;;5076046;28;20021;-74
2022/07/20 06:17:31;;;;;;;23.92;13.57;;;25.20;98.40;;;;;;5074280;28;20025;-72
2022/07/20 06:19:57;;;;;;;22.75;13.23;;;25.20;98.40;;;;;;5078215;28;20116;-73
2022/07/20 06:22:22;;;;;;;23.13;12.75;;;25.30;98.30;;;;;;5072778;28;20103;-74
2022/07/20 06:24:48;;;;;;;22.60;12.55;;;25.30;97.90;;;;;;5072314;28;20036;-73
2022/07/20 06:27:13;;;;;;;22.60;13.25;;;25.30;98.10;;;;;;5071609;28;20535;-74
2022/07/20 06:29:39;;;;;;;25.85;13.50;;;25.30;98.10;;;;;;5071939;28;20507;-75
2022/07/20 06:32:05;;;;;;;20.13;13.00;;;25.40;98.20;;;;;;5072614;28;20037;-73
2022/07/20 06:34:30;;;;;;;24.52;13.32;;;25.30;97.80;;;;;;5072788;28;20058;-73
2022/07/20 06:36:56;;;;;;;24.83;13.25;;;25.40;97.60;;;;;;5079292;28;20638;-74
2022/07/20 06:39:21;;;;;;;27.00;12.70;;;25.40;97.50;;;;;;5074040;28;20063;-74
2022/07/20 06:41:47;;;;;;;23.75;12.55;;;25.40;97.40;;;;;;5074551;28;20410;-74
2022/07/20 06:44:13;;;;;;;20.58;12.10;;;25.30;97.60;;;;;;5075515;28;20031;-74
2022/07/20 06:46:38;;;;;;;21.83;11.88;;;25.30;97.70;;;;;;5073373;28;20048;-74
2022/07/20 06:49:06;;;;;;;16.50;11.07;;;25.30;98.30;;;;;;5074183;28;20037;-75
2022/07/20 06:51:31;;;;;;;19.17;11.48;;;25.30;98.20;;;;;;5072687;28;20186;-75
2022/07/20 06:53:57;;;;;;;29.65;12.75;;;25.40;97.90;;;;;;5073735;28;20825;-76
2022/07/20 06:56:23;;;;;;;20.80;11.43;;;25.40;97.90;;;;;;5081514;28;20035;-75
2022/07/20 06:58:48;;;;;;;19.70;10.90;;;25.50;97.90;;;;;;5081062;28;20392;-73
2022/07/20 07:01:14;;;;;;;25.20;12.60;;;25.50;97.70;;;;;;5072188;28;20039;-75
2022/07/20 07:03:39;;;;;;;22.63;11.38;;;25.60;97.60;;;;;;5071028;28;20419;-75
2022/07/20 07:06:05;;;;;;;17.08;10.88;;;25.40;97.20;;;;;;5077724;28;20021;-73
2022/07/20 07:08:31;;;;;;;13.75;10.43;;;25.30;96.90;;;;;;5071220;28;20123;-74
2022/07/20 07:10:57;;;;;;;20.50;11.15;;;25.30;97.00;;;;;;5072288;28;20090;-73
2022/07/20 07:13:23;;;;;;;22.88;10.93;;;25.20;97.30;;;;;;5075339;28;20048;-73
2022/07/20 07:15:50;;;;;;;22.58;11.57;;;25.10;97.70;;;;;;5071046;28;20067;-73
2022/07/20 07:18:15;;;;;;;23.30;11.50;;;25.20;97.60;;;;;;5071842;28;20036;-73
2022/07/20 07:20:41;;;;;;;19.70;10.35;;;25.20;97.40;;;;;;5072788;28;20112;-74
2022/07/20 07:23:07;;;;;;;18.35;10.25;;;25.10;96.70;;;;;;5071431;28;20036;-73
2022/07/20 07:25:32;;;;;;;19.67;10.65;;;25.10;97.10;;;;;;5075553;28;20027;-74
2022/07/20 07:27:58;;;;;;;14.05;10.68;;;24.90;97.10;;;;;;5071980;28;20028;-74
2022/07/20 07:30:23;;;;;;;18.67;10.52;;;24.90;97.70;;;;;;5071361;28;20829;-74
2022/07/20 07:32:49;;;;;;;22.95;10.02;;;24.80;97.40;;;;;;5072229;28;20452;-75
2022/07/20 07:35:14;;;;;;;21.73;10.02;;;24.80;97.40;;;;;;5089541;28;20038;-72
2022/07/20 07:37:41;;;;;;;17.92;10.27;;;24.80;98.10;;;;;;5103753;28;20506;-71
2022/07/20 07:40:08;;;;;;;16.90;10.55;;;24.80;97.90;;;;;;5102382;28;20596;-73
2022/07/20 07:42:34;;;;;;;18.40;9.73;;;24.80;97.50;;;;;;5082927;28;20039;-72
2022/07/20 07:45:04;;;;;;;17.10;10.00;;;24.80;97.60;;;;;;5086003;28;20019;-72
2022/07/20 07:47:31;;;;;;;14.38;10.02;;;24.90;97.50;;;;;;5092114;28;20016;-73
2022/07/20 07:49:57;;;;;;;17.02;10.23;;;24.90;97.60;;;;;;5079905;28;20396;-74
2022/07/20 07:52:22;;;;;;;16.45;10.63;;;24.90;97.50;;;;;;5077246;28;20082;-72
2022/07/20 07:54:48;;;;;;;16.95;9.60;;;24.90;97.00;;;;;;5075411;28;20028;-73
2022/07/20 07:57:13;;;;;;;17.95;9.55;;;25.00;96.70;;;;;;5073592;28;20420;-73
2022/07/20 07:59:39;;;;;;;16.33;10.60;;;25.00;96.20;;;;;;5073720;28;20547;-73
2022/07/20 08:02:04;;;;;;;20.10;10.75;;;25.10;95.90;;;;;;5073431;28;20034;-73
2022/07/20 08:04:30;;;;;;;18.45;9.98;;;25.20;96.20;;;;;;5072365;28;20070;-72
2022/07/20 08:06:56;;;;;;;18.33;10.18;;;25.30;96.00;;;;;;5069889;28;20025;-73
2022/07/20 08:09:21;;;;;;;16.58;9.77;;;25.30;95.70;;;;;;5070955;28;20075;-73
2022/07/20 08:11:47;;;;;;;20.23;11.13;;;25.30;96.00;;;;;;5070703;28;20127;-75
2022/07/20 08:14:13;;;;;;;12.68;10.38;;;25.30;95.90;;;;;;5085003;28;20031;-74
2022/07/20 08:16:38;;;;;;;15.90;9.77;;;25.30;95.90;;;;;;5071161;28;20468;-74
2022/07/20 08:19:04;;;;;;;12.40;9.48;;;25.50;95.80;;;;;;5070750;28;20464;-74
2022/07/20 08:21:30;;;;;;;15.48;10.23;;;25.60;95.50;;;;;;5070457;28;20020;-73
2022/07/20 08:23:55;;;;;;;13.35;10.38;;;25.70;95.60;;;;;;5069330;28;20016;-73
2022/07/20 08:26:21;;;;;;;13.80;9.63;;;25.80;95.30;;;;;;5070040;28;20536;-73
2022/07/20 08:28:47;;;;;;;11.63;10.35;;;25.90;94.70;;;;;;5070986;28;20027;-72
2022/07/20 08:31:12;;;;;;;15.13;9.60;;;25.90;94.60;;;;;;5071151;28;20020;-72
2022/07/20 08:33:38;;;;;;;23.10;11.18;;;25.90;94.80;;;;;;5086733;28;20154;-73
2022/07/20 08:36:04;;;;;;;19.75;10.75;;;26.00;94.90;;;;;;5091867;28;20468;-73
2022/07/20 08:38:29;;;;;;;11.00;9.10;;;26.00;94.70;;;;;;5092294;28;20028;-73
2022/07/20 08:40:57;;;;;;;11.38;8.43;;;26.10;94.80;;;;;;5091131;28;20016;-73
2022/07/20 08:43:23;;;;;;;11.82;9.35;;;26.20;93.60;;;;;;5092269;28;20475;-73
2022/07/20 08:45:50;;;;;;;13.43;8.82;;;26.30;92.80;;;;;;5073589;28;20020;-71
2022/07/20 08:48:18;;;;;;;14.90;9.30;;;26.50;92.90;;;;;;5091926;28;20031;-73
2022/07/20 08:50:45;;;;;;;13.73;8.60;;;26.70;92.60;;;;;;5091978;28;20034;-73
2022/07/20 08:53:11;;;;;;;9.07;8.02;;;26.80;91.70;;;;;;5078009;28;20476;-72
2022/07/20 08:55:36;;;;;;;13.57;8.30;;;27.00;91.10;;;;;;5095459;28;20030;-74
2022/07/20 08:58:02;;;;;;;12.88;8.43;;;27.00;91.10;;;;;;5096195;28;20024;-74
2022/07/20 09:00:28;;;;;;;10.70;7.90;;;27.20;90.60;;;;;;5096307;28;20467;-74
2022/07/20 09:03:02;;;;;;;9.80;8.50;;;27.20;90.20;;;;;;5095163;28;20020;-73
2022/07/20 09:05:38;;;;;;;9.23;8.00;;;27.20;90.20;;;;;;5096053;28;20032;-75
2022/07/20 09:08:05;;;;;;;11.15;8.60;;;27.10;90.30;;;;;;5095138;28;20016;-73
2022/07/20 09:10:34;;;;;;;8.27;7.43;;;27.10;90.20;;;;;;5095841;28;20067;-73
2022/07/20 09:13:07;;;;;;;15.43;7.82;;;27.00;90.20;;;;;;5095650;28;20024;-73
2022/07/20 09:15:41;;;;;;;8.40;6.65;;;27.10;89.60;;;;;;5095385;28;20032;-74
2022/07/20 09:18:18;;;;;;;8.50;6.93;;;27.10;88.80;;;;;;5095232;28;20024;-72
2022/07/20 09:20:49;;;;;;;11.77;6.93;;;27.30;89.90;;;;;;5095482;28;20020;-73
2022/07/20 09:23:27;;;;;;;8.07;6.53;;;27.40;88.70;;;;;;5094883;28;20043;-74
2022/07/20 09:26:07;;;;;;;10.80;6.57;;;27.50;88.70;;;;;;5095378;28;20464;-73
2022/07/20 09:28:34;;;;;;;;;;;27.50;88.20;;;;;;5095737;28;20079;-73
2022/07/20 09:31:00;;;;;;;9.57;6.68;;;27.50;87.60;;;;;;5086668;28;19911;-73
2022/07/20 09:33:31;;;;;;;7.65;6.88;;;27.30;87.40;;;;;;5089334;28;20028;-73
2022/07/20 09:36:00;;;;;;;6.40;5.80;;;27.10;87.70;;;;;;5095078;28;20483;-74
2022/07/20 09:38:33;;;;;;;10.82;8.10;;;27.00;89.30;;;;;;5094815;28;20368;-74
2022/07/20 09:40:59;;;;;;;11.50;8.15;;;27.10;90.10;;;;;;5095002;28;20024;-73
2022/07/20 09:43:27;;;;;;;11.70;7.90;;;27.10;90.10;;;;;;5097075;28;20034;-73
2022/07/20 09:45:54;;;;;;;9.93;8.27;;;27.20;89.30;;;;;;5096884;28;20364;-73
2022/07/20 09:48:23;;;;;;;8.93;7.35;;;27.30;89.90;;;;;;5095559;28;20032;-72
2022/07/20 09:50:49;;;;;;;10.68;8.52;;;27.50;89.00;;;;;;5094036;28;20047;-73
2022/07/20 09:53:15;;;;;;;10.98;7.05;;;27.80;88.50;;;;;;5095327;28;20348;-73
2022/07/20 09:55:42;;;;;;;7.82;5.78;;;28.00;87.50;;;;;;5094143;28;20099;-72
2022/07/20 09:58:08;;;;;;;8.80;6.25;;;28.20;85.70;;;;;;5080710;28;20028;-73
2022/07/20 10:00:36;;;;;;;6.43;5.90;;;28.30;85.70;;;;;;5095493;28;20032;-72
2022/07/20 10:03:03;;;;;;;8.48;6.20;;;28.30;86.50;;;;;;5094441;28;20500;-73
2022/07/20 10:05:32;;;;;;;8.15;6.55;;;28.30;86.00;;;;;;5094410;28;20028;-74
2022/07/20 10:08:02;;;;;;;6.70;5.77;;;28.30;86.90;;;;;;5094297;28;20020;-75
2022/07/20 10:10:28;;;;;;;8.90;6.90;;;28.20;87.70;;;;;;5094518;28;20328;-74
2022/07/20 10:12:55;;;;;;;9.07;6.07;;;28.10;86.80;;;;;;5093521;28;20024;-73
2022/07/20 10:15:29;;;;;;;13.77;6.05;;;27.90;86.70;;;;;;5094672;28;20032;-73
2022/07/20 10:17:55;;;;;;;5.75;5.25;;;27.70;86.80;;;;;;5094037;28;20086;-73
2022/07/20 10:20:30;;;;;;;7.88;5.53;;;27.70;85.50;;;;;;5094144;28;20051;-74
2022/07/20 10:23:26;;;;;;;6.78;6.07;;;27.70;85.50;;;;;;5093750;28;20055;-74
2022/07/20 10:25:53;;;;;;;8.60;5.72;;;27.70;86.50;;;;;;5088168;28;20141;-73
2022/07/20 10:28:37;;;;;;;6.63;5.50;;;27.80;86.10;;;;;;5094166;28;20035;-73
2022/07/20 10:31:08;;;;;;;10.00;5.43;;;27.90;87.30;;;;;;5085699;28;20029;-73
2022/07/20 10:33:37;;;;;;;5.45;4.95;;;27.90;84.60;;;;;;5088279;28;20016;-73
2022/07/20 10:39:39;;;;;;;7.70;5.55;;;27.90;85.50;;;;;;5094169;28;20380;-73
2022/07/20 10:42:30;;;;;;;5.60;4.35;;;27.90;85.20;;;;;;5094034;28;20077;-73
2022/07/20 10:45:23;;;;;;;6.45;5.10;;;27.90;85.70;;;;;;5093448;28;20085;-73
2022/07/20 10:47:56;;;;;;;6.38;5.45;;;27.80;86.20;;;;;;5093129;28;20027;-74
2022/07/20 10:50:52;;;;;;;6.97;5.30;;;27.80;85.80;;;;;;5094114;28;20079;-72
2022/07/20 10:53:18;;;;;;;7.72;5.30;;;27.80;85.70;;;;;;5083082;28;20146;-74
2022/07/20 10:55:55;;;;;;;7.82;5.53;;;27.80;85.90;;;;;;5093083;28;20103;-74
2022/07/20 10:58:24;;;;;;;10.25;5.40;;;27.90;85.50;;;;;;5093840;28;20483;-72
2022/07/20 11:00:55;;;;;;;6.25;4.88;;;27.90;85.30;;;;;;5092802;28;20024;-73
2022/07/20 11:03:29;;;;;;;7.47;5.85;;;28.00;85.90;;;;;;5093857;28;20024;-74
2022/07/20 11:06:19;;;;;;;9.85;6.68;;;28.10;86.90;;;;;;5093445;28;20047;-74
2022/07/20 11:08:50;;;;;;;;;;;28.20;87.00;;;;;;5083420;28;20551;-72
2022/07/20 11:11:18;;;;;;;10.45;5.88;;;28.30;87.10;;;;;;5093761;28;19927;-74
2022/07/20 11:13:46;;;;;;;8.15;5.93;;;28.20;86.30;;;;;;5093421;28;20036;-73
2022/07/20 11:16:11;;;;;;;7.05;6.30;;;28.20;88.60;;;;;;5092586;28;20439;-74
2022/07/20 11:18:38;;;;;;;10.75;6.22;;;28.20;88.10;;;;;;5093053;28;20032;-73
2022/07/20 11:21:08;;;;;;;8.30;5.30;;;28.20;87.30;;;;;;5093302;28;20089;-74
2022/07/20 11:23:46;;;;;;;7.95;5.53;;;28.20;87.50;;;;;;5093132;28;20114;-73
2022/07/20 11:26:14;;;;;;;8.32;5.65;;;28.10;87.40;;;;;;5093104;28;20028;-72
2022/07/20 11:28:43;;;;;;;6.85;5.65;;;28.00;87.70;;;;;;5093257;28;20027;-73
2022/07/20 11:31:09;;;;;;;17.63;7.60;;;28.20;89.00;;;;;;5084158;28;20029;-73
2022/07/20 11:33:40;;;;;;;7.15;6.43;;;28.30;88.50;;;;;;5094599;28;20031;-73
2022/07/20 11:36:09;;;;;;;12.93;6.32;;;28.50;88.10;;;;;;5094008;28;20032;-73
2022/07/20 11:38:40;;;;;;;7.72;5.68;;;28.50;87.00;;;;;;5093208;28;20242;-74
2022/07/20 11:41:09;;;;;;;8.57;5.80;;;28.60;86.60;;;;;;5092957;28;20028;-72
2022/07/20 11:43:36;;;;;;;6.38;5.10;;;28.80;86.90;;;;;;5092365;28;20032;-73
2022/07/20 11:46:18;;;;;;;9.60;5.80;;;28.80;86.80;;;;;;5092858;28;20032;-73
2022/07/20 11:48:50;;;;;;;4.82;3.95;;;28.90;86.80;;;;;;5092956;28;20042;-74
2022/07/20 11:51:16;;;;;;;6.10;4.07;;;28.80;84.00;;;;;;5092423;28;20034;-74
2022/07/20 11:53:42;;;;;;;6.55;4.82;;;28.70;84.10;;;;;;5092842;28;20103;-74
2022/07/20 11:56:18;;;;;;;9.50;6.00;;;28.60;83.90;;;;;;5092208;28;20020;-73
2022/07/20 11:58:45;;;;;;;7.90;5.00;;;28.50;86.40;;;;;;5091987;28;20038;-72
2022/07/20 12:01:14;;;;;;;5.85;5.00;;;28.50;86.40;;;;;;5091944;28;20412;-73
2022/07/20 12:03:42;;;;;;;7.65;5.10;;;28.60;86.30;;;;;;5092852;28;20066;-73
2022/07/20 12:06:11;;;;;;;7.65;5.18;;;28.70;84.00;;;;;;5091358;28;20027;-73
2022/07/20 12:08:37;;;;;;;6.65;5.10;;;28.50;84.20;;;;;;5092469;28;20088;-73
2022/07/20 12:11:04;;;;;;;6.65;6.05;;;28.30;85.30;;;;;;5091023;28;20040;-73
2022/07/20 12:13:31;;;;;;;9.18;6.28;;;28.00;86.60;;;;;;5092078;28;20028;-74
2022/07/20 12:16:03;;;;;;;10.95;6.18;;;27.80;87.70;;;;;;5092296;28;20461;-74
2022/07/20 12:18:47;;;;;;;8.63;5.93;;;27.80;88.80;;;;;;5091989;28;20166;-74
2022/07/20 12:21:22;;;;;;;7.82;5.78;;;27.70;89.00;;;;;;5092415;28;20483;-72
2022/07/20 12:23:50;;;;;;;14.25;6.90;;;27.70;89.90;;;;;;5092318;28;20016;-74
2022/07/20 12:26:35;;;;;;;9.40;6.57;;;27.60;90.00;;;;;;5090891;28;20186;-73
2022/07/20 12:29:19;;;;;;;11.85;6.15;;;27.30;90.20;;;;;;5092342;28;20361;-72
2022/07/20 12:31:57;;;;;;;7.55;6.07;;;27.10;91.10;;;;;;5078105;28;20029;-73
2022/07/20 12:34:22;;;;;;;8.55;6.95;;;26.90;92.30;;;;;;5078861;28;20099;-73
2022/07/20 12:36:49;;;;;;;11.05;6.38;;;26.60;93.40;;;;;;5091976;28;20494;-74
2022/07/20 12:39:34;;;;;;;10.70;7.65;;;26.30;93.90;;;;;;5091271;28;20040;-73
2022/07/20 12:42:36;;;;;;;11.93;8.43;;;26.10;94.80;;;;;;5091807;28;20024;-72
2022/07/20 12:45:04;;;;;;;17.52;8.52;;;25.90;94.90;;;;;;5088742;28;20036;-73